Time;durP1;ratioP1;P1;durP2;ratioP2;P2;SDS_P1;SDS_P2;PMS_P1;PMS_P2;Temp;Humidity;BMP_temperature;BMP_pressure;BME280_temperature;BME280_humidity;BME280_pressure;Samples;Min_cycle;Max_cycle;Signal;HPM_P1;HPM_P2
2023/11/25 00:02:34;;;;;;;;;;;;;;;;;;137569;1274;22301;-82
2023/11/25 00:05:36;;;;;;;;;;;;;;;;;;137573;1274;22169;-81
2023/11/25 00:08:39;;;;;;;;;;;;;;;;;;137509;1274;22450;-81
2023/11/25 00:11:42;;;;;;;;;;;;;;;;;;137558;1274;22174;-82
2023/11/25 00:14:44;;;;;;;;;;;;;;;;;;137585;1270;22732;-82
2023/11/25 00:17:46;;;;;;;;;;;;;;;;;;137537;1269;22280;-80
2023/11/25 00:20:49;;;;;;;;;;;;;;;;;;137522;1274;22289;-80
2023/11/25 00:23:51;;;;;;;;;;;;;;;;;;137539;1274;22451;-81
2023/11/25 00:26:54;;;;;;;;;;;;;;;;;;137587;1274;22326;-81
2023/11/25 00:29:56;;;;;;;;;;;;;;;;;;137621;1274;22273;-80
2023/11/25 00:33:00;;;;;;;;;;;;;;;;;;137542;1274;22148;-80
2023/11/25 00:36:03;;;;;;;;;;;;;;;;;;137554;1268;22283;-80
2023/11/25 00:39:06;;;;;;;;;;;;;;;;;;137522;1274;22167;-80
2023/11/25 00:42:10;;;;;;;;;;;;;;;;;;137569;1274;22267;-81
2023/11/25 00:45:14;;;;;;;;;;;;;;;;;;137592;1274;22266;-81
2023/11/25 00:48:17;;;;;;;;;;;;;;;;;;137529;1274;22365;-81
2023/11/25 00:51:19;;;;;;;;;;;;;;;;;;137550;1274;22174;-80
2023/11/25 00:54:22;;;;;;;;;;;;;;;;;;137597;1262;22374;-81
2023/11/25 00:57:25;;;;;;;;;;;;;;;;;;137544;1274;22234;-81
2023/11/25 01:00:30;;;;;;;;;;;;;;;;;;137480;1274;22284;-80
2023/11/25 01:03:33;;;;;;;;;;;;;;;;;;137572;1262;22265;-82
2023/11/25 01:06:38;;;;;;;;;;;;;;;;;;137558;1274;22198;-81
2023/11/25 01:09:40;;;;;;;;;;;;;;;;;;137569;1274;22322;-81
2023/11/25 01:12:43;;;;;;;;;;;;;;;;;;137535;1274;22720;-81
2023/11/25 01:15:45;;;;;;;;;;;;;;;;;;137547;1274;22344;-81
2023/11/25 01:18:48;;;;;;;;;;;;;;;;;;137567;1274;22209;-81
2023/11/25 01:21:50;;;;;;;;;;;;;;;;;;137536;1274;22394;-81
2023/11/25 01:24:53;;;;;;;;;;;;;;;;;;137543;1262;22471;-81
2023/11/25 01:27:58;;;;;;;;;;;;;;;;;;137560;1274;22288;-81
2023/11/25 01:31:00;;;;;;;;;;;;;;;;;;137578;1274;22181;-81
2023/11/25 01:34:03;;;;;;;;;;;;;;;;;;137542;1274;22278;-81
2023/11/25 01:37:07;;;;;;;;;;;;;;;;;;137579;1274;22274;-81
2023/11/25 01:40:11;;;;;;;;;;;;;;;;;;137592;1274;22316;-81
2023/11/25 01:43:14;;;;;;;;;;;;;;;;;;137602;1274;22235;-81
2023/11/25 01:46:16;;;;;;;;;;;;;;;;;;137562;1274;22290;-82
2023/11/25 01:49:19;;;;;;;;;;;;;;;;;;137747;1274;22271;-81
2023/11/25 01:52:22;;;;;;;;;;;;;;;;;;137723;1274;22271;-82
2023/11/25 01:55:27;;;;;;;;;;;;;;;;;;137609;1271;22718;-82
2023/11/25 01:58:30;;;;;;;;;;;;;;;;;;137623;1274;22208;-81
2023/11/25 02:01:32;;;;;;;;;;;;;;;;;;137639;1274;22299;-81
2023/11/25 02:04:37;;;;;;;;;;;;;;;;;;137597;1274;22211;-81
2023/11/25 02:07:39;;;;;;;;;;;;;;;;;;137619;1274;22308;-82
2023/11/25 02:10:42;;;;;;;;;;;;;;;;;;137624;1274;22303;-83
2023/11/25 02:13:44;;;;;;;;;;;;;;;;;;137584;1274;22174;-81
2023/11/25 02:16:47;;;;;;;;;;;;;;;;;;137566;1274;22338;-81
2023/11/25 02:19:49;;;;;;;;;;;;;;;;;;137590;1274;22251;-81
2023/11/25 02:22:52;;;;;;;;;;;;;;;;;;137563;1274;22268;-80
2023/11/25 02:25:54;;;;;;;;;;;;;;;;;;137587;1274;22380;-81
2023/11/25 02:28:57;;;;;;;;;;;;;;;;;;137586;1274;22278;-81
2023/11/25 02:31:59;;;;;;;;;;;;;;;;;;137532;1274;22266;-81
2023/11/25 02:35:02;;;;;;;;;;;;;;;;;;137528;1274;22227;-82
2023/11/25 02:38:05;;;;;;;;;;;;;;;;;;137553;1268;22211;-82
2023/11/25 02:41:08;;;;;;;;;;;;;;;;;;137587;1274;22466;-81
2023/11/25 02:44:12;;;;;;;;;;;;;;;;;;137537;1274;22286;-81
2023/11/25 02:47:14;;;;;;;;;;;;;;;;;;137614;1274;22364;-81
2023/11/25 02:50:17;;;;;;;;;;;;;;;;;;137592;1274;22268;-80
2023/11/25 02:53:19;;;;;;;;;;;;;;;;;;137566;1274;22443;-81
2023/11/25 02:56:22;;;;;;;;;;;;;;;;;;137563;1274;22208;-81
2023/11/25 02:59:24;;;;;;;;;;;;;;;;;;137574;1274;22869;-81
2023/11/25 03:02:27;;;;;;;;;;;;;;;;;;137569;1274;22327;-80
2023/11/25 03:05:31;;;;;;;;;;;;;;;;;;137570;1274;22735;-81
2023/11/25 03:08:34;;;;;;;;;;;;;;;;;;137588;1274;22270;-80
2023/11/25 03:11:37;;;;;;;;;;;;;;;;;;137588;1274;22288;-80
2023/11/25 03:14:39;;;;;;;;;;;;;;;;;;137569;1274;22916;-81
2023/11/25 03:17:42;;;;;;;;;;;;;;;;;;137577;1274;23112;-81
2023/11/25 03:20:44;;;;;;;;;;;;;;;;;;137605;1274;22383;-81
2023/11/25 03:23:47;;;;;;;;;;;;;;;;;;137584;1274;22432;-80
2023/11/25 03:26:50;;;;;;;;;;;;;;;;;;137598;1272;22213;-80
2023/11/25 03:29:52;;;;;;;;;;;;;;;;;;137565;1274;22432;-80
2023/11/25 03:32:55;;;;;;;;;;;;;;;;;;137589;1274;22307;-82
2023/11/25 03:35:57;;;;;;;;;;;;;;;;;;137562;1274;22195;-80
2023/11/25 03:39:00;;;;;;;;;;;;;;;;;;137602;1274;22222;-81
2023/11/25 03:42:04;;;;;;;;;;;;;;;;;;137614;1274;22272;-81
2023/11/25 03:45:07;;;;;;;;;;;;;;;;;;137618;1274;22258;-81
2023/11/25 03:48:09;;;;;;;;;;;;;;;;;;137588;1270;22468;-81
2023/11/25 03:51:12;;;;;;;;;;;;;;;;;;137573;1274;22276;-81
2023/11/25 03:54:14;;;;;;;;;;;;;;;;;;137561;1272;22404;-82
2023/11/25 03:57:17;;;;;;;;;;;;;;;;;;137471;1274;22272;-83
2023/11/25 04:00:22;;;;;;;;;;;;;;;;;;137522;1274;22263;-83
2023/11/25 04:03:25;;;;;;;;;;;;;;;;;;137566;1274;22246;-84
2023/11/25 04:06:28;;;;;;;;;;;;;;;;;;137585;1274;22260;-85
2023/11/25 04:09:31;;;;;;;;;;;;;;;;;;137508;1274;22275;-84
2023/11/25 04:12:34;;;;;;;;;;;;;;;;;;137530;1274;22165;-85
2023/11/25 04:15:36;;;;;;;;;;;;;;;;;;137536;1274;22240;-82
2023/11/25 04:18:39;;;;;;;;;;;;;;;;;;137546;1274;22231;-84
2023/11/25 04:21:45;;;;;;;;;;;;;;;;;;137784;1274;22653;-82
2023/11/25 04:24:48;;;;;;;;;;;;;;;;;;137754;1274;22454;-82
2023/11/25 04:27:50;;;;;;;;;;;;;;;;;;137653;1274;22265;-82
2023/11/25 04:30:53;;;;;;;;;;;;;;;;;;137641;1274;22270;-83
2023/11/25 04:33:57;;;;;;;;;;;;;;;;;;137623;1274;22263;-83
2023/11/25 04:37:00;;;;;;;;;;;;;;;;;;137581;1274;22199;-84
2023/11/25 04:40:05;;;;;;;;;;;;;;;;;;137567;1274;22367;-82
2023/11/25 04:43:07;;;;;;;;;;;;;;;;;;137507;1274;22152;-82
2023/11/25 04:46:09;;;;;;;;;;;;;;;;;;137493;1271;22206;-81
2023/11/25 04:49:12;;;;;;;;;;;;;;;;;;137458;1274;22200;-81
2023/11/25 04:52:15;;;;;;;;;;;;;;;;;;137479;1266;22176;-82
2023/11/25 04:55:18;;;;;;;;;;;;;;;;;;137433;1274;22346;-81
2023/11/25 04:58:23;;;;;;;;;;;;;;;;;;137442;1271;22697;-81
2023/11/25 05:01:26;;;;;;;;;;;;;;;;;;137499;1274;22284;-82
2023/11/25 05:04:29;;;;;;;;;;;;;;;;;;137501;1274;22366;-81
2023/11/25 05:07:31;;;;;;;;;;;;;;;;;;137439;1274;22258;-82
2023/11/25 05:10:34;;;;;;;;;;;;;;;;;;137431;1274;22670;-81
2023/11/25 05:13:36;;;;;;;;;;;;;;;;;;137446;1274;22541;-82
2023/11/25 05:16:39;;;;;;;;;;;;;;;;;;137452;1274;22268;-82
2023/11/25 05:19:41;;;;;;;;;;;;;;;;;;137434;1274;22677;-81
2023/11/25 05:22:44;;;;;;;;;;;;;;;;;;137450;1274;22246;-82
2023/11/25 05:25:46;;;;;;;;;;;;;;;;;;137475;1274;22392;-82
2023/11/25 05:28:49;;;;;;;;;;;;;;;;;;137441;1274;22378;-81
2023/11/25 05:31:51;;;;;;;;;;;;;;;;;;137491;1274;22788;-82
2023/11/25 05:34:54;;;;;;;;;;;;;;;;;;137500;1274;22266;-83
2023/11/25 05:37:56;;;;;;;;;;;;;;;;;;137492;1274;22260;-82
2023/11/25 05:40:59;;;;;;;;;;;;;;;;;;137515;1274;22194;-82
2023/11/25 05:44:02;;;;;;;;;;;;;;;;;;137447;1274;22241;-82
2023/11/25 05:47:04;;;;;;;;;;;;;;;;;;137441;1274;22614;-83
2023/11/25 05:50:08;;;;;;;;;;;;;;;;;;137466;1274;22919;-82
2023/11/25 05:53:11;;;;;;;;;;;;;;;;;;137503;1274;22327;-83
2023/11/25 05:56:13;;;;;;;;;;;;;;;;;;137525;1274;22257;-82
2023/11/25 05:59:16;;;;;;;;;;;;;;;;;;137490;1274;22250;-81
2023/11/25 06:02:19;;;;;;;;;;;;;;;;;;137485;1274;22241;-80
2023/11/25 06:05:21;;;;;;;;;;;;;;;;;;137544;1274;22688;-80
2023/11/25 06:08:24;;;;;;;;;;;;;;;;;;137506;1274;22193;-80
2023/11/25 06:11:27;;;;;;;;;;;;;;;;;;137507;1274;22276;-83
2023/11/25 06:14:32;;;;;;;;;;;;;;;;;;137495;1274;22266;-83
2023/11/25 06:17:35;;;;;;;;;;;;;;;;;;137509;1274;22427;-86
2023/11/25 06:20:38;;;;;;;;;;;;;;;;;;137508;1274;22159;-84
2023/11/25 06:23:42;;;;;;;;;;;;;;;;;;137568;1274;22451;-82
2023/11/25 06:26:45;;;;;;;;;;;;;;;;;;137554;1274;22254;-84
2023/11/25 06:29:49;;;;;;;;;;;;;;;;;;137538;1274;22289;-85
2023/11/25 06:32:51;;;;;;;;;;;;;;;;;;137451;1274;22711;-83
2023/11/25 06:35:55;;;;;;;;;;;;;;;;;;137487;1274;23006;-83
2023/11/25 06:38:57;;;;;;;;;;;;;;;;;;137471;1274;22182;-84
2023/11/25 06:42:00;;;;;;;;;;;;;;;;;;137493;1274;22769;-82
2023/11/25 06:45:03;;;;;;;;;;;;;;;;;;137517;1274;22648;-86
2023/11/25 06:48:06;;;;;;;;;;;;;;;;;;137531;1274;22728;-85
2023/11/25 06:51:10;;;;;;;;;;;;;;;;;;137542;1274;22251;-84
2023/11/25 06:54:13;;;;;;;;;;;;;;;;;;137550;1274;22876;-85
2023/11/25 06:57:16;;;;;;;;;;;;;;;;;;137633;1274;22323;-85
2023/11/25 07:00:22;;;;;;;;;;;;;;;;;;137621;1274;22357;-86
2023/11/25 07:03:24;;;;;;;;;;;;;;;;;;137625;1274;22190;-85
2023/11/25 07:06:27;;;;;;;;;;;;;;;;;;137634;1274;22297;-85
2023/11/25 07:09:30;;;;;;;;;;;;;;;;;;137536;1274;22235;-85
2023/11/25 07:12:33;;;;;;;;;;;;;;;;;;137545;1274;22196;-85
2023/11/25 07:15:37;;;;;;;;;;;;;;;;;;137532;1274;22173;-84
2023/11/25 07:18:42;;;;;;;;;;;;;;;;;;137534;1274;22263;-84
2023/11/25 07:21:47;;;;;;;;;;;;;;;;;;137515;1274;22765;-85
2023/11/25 07:24:50;;;;;;;;;;;;;;;;;;137563;1273;22389;-84
2023/11/25 07:27:53;;;;;;;;;;;;;;;;;;137501;1274;22278;-83
2023/11/25 07:30:55;;;;;;;;;;;;;;;;;;137516;1274;22325;-85
2023/11/25 07:33:58;;;;;;;;;;;;;;;;;;137526;1274;22217;-87
2023/11/25 07:37:00;;;;;;;;;;;;;;;;;;137537;1274;22176;-86
2023/11/25 07:40:03;;;;;;;;;;;;;;;;;;137530;1274;22246;-84
2023/11/25 07:43:06;;;;;;;;;;;;;;;;;;137543;1274;22178;-85
2023/11/25 07:46:11;;;;;;;;;;;;;;;;;;137513;1274;22254;-86
2023/11/25 07:49:14;;;;;;;;;;;;;;;;;;137560;1274;22162;-87
2023/11/25 07:52:16;;;;;;;;;;;;;;;;;;137532;1274;22699;-86
2023/11/25 07:55:18;;;;;;;;;;;;;;;;;;137536;1274;22373;-86
2023/11/25 07:58:22;;;;;;;;;;;;;;;;;;137511;1275;22235;-85
2023/11/25 08:01:26;;;;;;;;;;;;;;;;;;137536;1274;22301;-85
2023/11/25 08:04:28;;;;;;;;;;;;;;;;;;137512;1274;22176;-85
2023/11/25 08:07:31;;;;;;;;;;;;;;;;;;137454;1274;22278;-86
2023/11/25 08:10:34;;;;;;;;;;;;;;;;;;137457;1274;22132;-84
2023/11/25 08:13:36;;;;;;;;;;;;;;;;;;137483;1274;22167;-86
2023/11/25 08:16:39;;;;;;;;;;;;;;;;;;137466;1274;22236;-87
2023/11/25 08:19:41;;;;;;;;;;;;;;;;;;137512;1274;22318;-86
2023/11/25 08:22:44;;;;;;;;;;;;;;;;;;137537;1274;22153;-85
2023/11/25 08:25:47;;;;;;;;;;;;;;;;;;137563;1274;22985;-86
2023/11/25 08:28:49;;;;;;;;;;;;;;;;;;137568;1274;22235;-86
2023/11/25 08:31:52;;;;;;;;;;;;;;;;;;137485;1274;22634;-85
2023/11/25 08:34:54;;;;;;;;;;;;;;;;;;137535;1274;22315;-85
2023/11/25 08:37:57;;;;;;;;;;;;;;;;;;137539;1274;22201;-84
2023/11/25 08:40:59;;;;;;;;;;;;;;;;;;137513;1274;22507;-85
2023/11/25 08:44:02;;;;;;;;;;;;;;;;;;137554;1274;22648;-86
2023/11/25 08:47:05;;;;;;;;;;;;;;;;;;137592;1274;22160;-85
2023/11/25 08:50:09;;;;;;;;;;;;;;;;;;137589;1274;22575;-87
2023/11/25 08:53:14;;;;;;;;;;;;;;;;;;137621;1274;22337;-84
2023/11/25 08:56:17;;;;;;;;;;;;;;;;;;137549;1274;22230;-84
2023/11/25 08:59:20;;;;;;;;;;;;;;;;;;137536;1263;22309;-85
2023/11/25 09:02:24;;;;;;;;;;;;;;;;;;137493;1274;22362;-85
2023/11/25 09:05:28;;;;;;;;;;;;;;;;;;137519;1274;22209;-85
2023/11/25 09:08:31;;;;;;;;;;;;;;;;;;137489;1274;22189;-84
2023/11/25 09:11:33;;;;;;;;;;;;;;;;;;137475;1274;22717;-84
2023/11/25 09:14:36;;;;;;;;;;;;;;;;;;137515;1270;22197;-84
2023/11/25 09:17:39;;;;;;;;;;;;;;;;;;137514;1274;22398;-85
2023/11/25 09:20:42;;;;;;;;;;;;;;;;;;137554;1274;22325;-85
2023/11/25 09:23:44;;;;;;;;;;;;;;;;;;137617;1273;22500;-81
2023/11/25 09:26:47;;;;;;;;;;;;;;;;;;137668;1274;22252;-84
2023/11/25 09:29:54;;;;;;;;;;;;;;;;;;137618;1274;22252;-85
2023/11/25 09:32:56;;;;;;;;;;;;;;;;;;137592;1274;22364;-84
2023/11/25 09:35:59;;;;;;;;;;;;;;;;;;137600;1274;22287;-83
2023/11/25 09:39:03;;;;;;;;;;;;;;;;;;137419;1274;197794;-84
2023/11/25 09:42:06;;;;;;;;;;;;;;;;;;137582;1274;22225;-84
2023/11/25 09:45:09;;;;;;;;;;;;;;;;;;137547;1274;22173;-84
2023/11/25 09:48:11;;;;;;;;;;;;;;;;;;137516;1270;22225;-85
2023/11/25 09:51:14;;;;;;;;;;;;;;;;;;137523;1274;22278;-84
2023/11/25 09:54:17;;;;;;;;;;;;;;;;;;137531;1274;22403;-80
2023/11/25 09:57:20;;;;;;;;;;;;;;;;;;137494;1274;22333;-83
2023/11/25 10:00:22;;;;;;;;;;;;;;;;;;137530;1274;22392;-83
2023/11/25 10:03:25;;;;;;;;;;;;;;;;;;137508;1274;22264;-79
2023/11/25 10:06:28;;;;;;;;;;;;;;;;;;137523;1274;22719;-79
2023/11/25 10:09:30;;;;;;;;;;;;;;;;;;137533;1274;22644;-79
2023/11/25 10:12:33;;;;;;;;;;;;;;;;;;137509;1274;22720;-79
2023/11/25 10:15:35;;;;;;;;;;;;;;;;;;137493;1270;22640;-78
2023/11/25 10:18:38;;;;;;;;;;;;;;;;;;137478;1274;22844;-79
2023/11/25 10:21:40;;;;;;;;;;;;;;;;;;137480;1274;22313;-77
2023/11/25 10:24:43;;;;;;;;;;;;;;;;;;137465;1274;22444;-79
2023/11/25 10:27:45;;;;;;;;;;;;;;;;;;137497;1274;22854;-78
2023/11/25 10:30:48;;;;;;;;;;;;;;;;;;137509;1274;22882;-79
2023/11/25 10:33:50;;;;;;;;;;;;;;;;;;137511;1274;22623;-79
2023/11/25 10:36:53;;;;;;;;;;;;;;;;;;137474;1274;22278;-80
2023/11/25 10:39:55;;;;;;;;;;;;;;;;;;137465;1274;22203;-78
2023/11/25 10:43:02;;;;;;;;;;;;;;;;;;137456;1274;23117;-79
2023/11/25 10:46:05;;;;;;;;;;;;;;;;;;137499;1274;22760;-79
2023/11/25 10:49:08;;;;;;;;;;;;;;;;;;137448;1270;22878;-80
2023/11/25 10:52:10;;;;;;;;;;;;;;;;;;137484;1274;22275;-79
2023/11/25 10:55:13;;;;;;;;;;;;;;;;;;137463;1274;22375;-79
2023/11/25 10:58:16;;;;;;;;;;;;;;;;;;137495;1274;22690;-79
2023/11/25 11:01:19;;;;;;;;;;;;;;;;;;137482;1274;22269;-79
2023/11/25 11:04:23;;;;;;;;;;;;;;;;;;137415;1274;22310;-79
2023/11/25 11:07:25;;;;;;;;;;;;;;;;;;137418;1274;22193;-78
2023/11/25 11:10:28;;;;;;;;;;;;;;;;;;137385;1274;22244;-78
2023/11/25 11:13:30;;;;;;;;;;;;;;;;;;137409;1274;22190;-79
2023/11/25 11:16:33;;;;;;;;;;;;;;;;;;137428;1274;22191;-78
2023/11/25 11:19:36;;;;;;;;;;;;;;;;;;137427;1274;22286;-78
2023/11/25 11:22:39;;;;;;;;;;;;;;;;;;137431;1274;22271;-78
2023/11/25 11:25:41;;;;;;;;;;;;;;;;;;137397;1270;22676;-77
2023/11/25 11:28:44;;;;;;;;;;;;;;;;;;137452;1274;22275;-78
2023/11/25 11:31:46;;;;;;;;;;;;;;;;;;137494;1274;22292;-78
2023/11/25 11:34:49;;;;;;;;;;;;;;;;;;137472;1274;22175;-78
2023/11/25 11:37:51;;;;;;;;;;;;;;;;;;137464;1274;22583;-78
2023/11/25 11:40:54;;;;;;;;;;;;;;;;;;137514;1274;22687;-78
2023/11/25 11:43:57;;;;;;;;;;;;;;;;;;137514;1274;22165;-78
2023/11/25 11:46:59;;;;;;;;;;;;;;;;;;137512;1274;22261;-78
2023/11/25 11:50:08;;;;;;;;;;;;;;;;;;137529;1274;22723;-78
2023/11/25 11:53:13;;;;;;;;;;;;;;;;;;137594;1274;22303;-78
2023/11/25 11:56:16;;;;;;;;;;;;;;;;;;137622;1274;22175;-79
2023/11/25 11:59:18;;;;;;;;;;;;;;;;;;137579;1274;22298;-79
2023/11/25 12:02:21;;;;;;;;;;;;;;;;;;137595;1274;22398;-79
2023/11/25 12:05:24;;;;;;;;;;;;;;;;;;137613;1274;22269;-80
2023/11/25 12:08:27;;;;;;;;;;;;;;;;;;137639;1274;22351;-80
2023/11/25 12:11:29;;;;;;;;;;;;;;;;;;137573;1274;22449;-79
2023/11/25 12:14:31;;;;;;;;;;;;;;;;;;137603;1274;22318;-79
2023/11/25 12:17:34;;;;;;;;;;;;;;;;;;137579;1274;22247;-79
2023/11/25 12:20:36;;;;;;;;;;;;;;;;;;137543;1274;22203;-79
2023/11/25 12:23:39;;;;;;;;;;;;;;;;;;137477;1273;22442;-78
2023/11/25 12:26:41;;;;;;;;;;;;;;;;;;137476;1275;22327;-79
2023/11/25 12:29:44;;;;;;;;;;;;;;;;;;137493;1259;22161;-79
2023/11/25 12:32:46;;;;;;;;;;;;;;;;;;137530;1275;22690;-78
2023/11/25 12:35:49;;;;;;;;;;;;;;;;;;137516;1275;22193;-79
2023/11/25 12:38:52;;;;;;;;;;;;;;;;;;137471;1275;22304;-79
2023/11/25 12:41:55;;;;;;;;;;;;;;;;;;137490;1275;22272;-80
2023/11/25 12:44:57;;;;;;;;;;;;;;;;;;137457;1275;22337;-79
2023/11/25 12:47:59;;;;;;;;;;;;;;;;;;137505;1275;22264;-79
2023/11/25 12:51:03;;;;;;;;;;;;;;;;;;137534;1275;22351;-79
2023/11/25 12:54:09;;;;;;;;;;;;;;;;;;137505;1275;22349;-80
2023/11/25 12:57:14;;;;;;;;;;;;;;;;;;137516;1275;22773;-80
2023/11/25 13:00:18;;;;;;;;;;;;;;;;;;137535;1275;22791;-80
2023/11/25 13:03:21;;;;;;;;;;;;;;;;;;137513;1275;22406;-79
2023/11/25 13:06:24;;;;;;;;;;;;;;;;;;137448;1275;22189;-80
2023/11/25 13:09:31;;;;;;;;;;;;;;;;;;137437;1274;22272;-79
2023/11/25 13:12:33;;;;;;;;;;;;;;;;;;137480;1275;22793;-79
2023/11/25 13:15:36;;;;;;;;;;;;;;;;;;137510;1275;22291;-79
2023/11/25 13:18:38;;;;;;;;;;;;;;;;;;137500;1275;22785;-78
2023/11/25 13:21:41;;;;;;;;;;;;;;;;;;137389;1275;22596;-78
2023/11/25 13:24:44;;;;;;;;;;;;;;;;;;137432;1272;22399;-79
2023/11/25 13:27:47;;;;;;;;;;;;;;;;;;137511;1274;22332;-79
2023/11/25 13:30:50;;;;;;;;;;;;;;;;;;137561;1274;22273;-79
2023/11/25 13:33:54;;;;;;;;;;;;;;;;;;137545;1269;23060;-79
2023/11/25 13:36:57;;;;;;;;;;;;;;;;;;137561;1274;22791;-79
2023/11/25 13:39:59;;;;;;;;;;;;;;;;;;137577;1274;22287;-79
2023/11/25 13:43:02;;;;;;;;;;;;;;;;;;137588;1274;22664;-78
2023/11/25 13:46:05;;;;;;;;;;;;;;;;;;137595;1273;22296;-79
2023/11/25 13:49:07;;;;;;;;;;;;;;;;;;137556;1274;22284;-78
2023/11/25 13:52:10;;;;;;;;;;;;;;;;;;137520;1274;22199;-78
2023/11/25 13:55:15;;;;;;;;;;;;;;;;;;137554;1256;22426;-79
2023/11/25 13:58:18;;;;;;;;;;;;;;;;;;137559;1274;22270;-79
2023/11/25 14:01:21;;;;;;;;;;;;;;;;;;137525;1274;22274;-78
2023/11/25 14:04:24;;;;;;;;;;;;;;;;;;137556;1274;22272;-78
2023/11/25 14:07:27;;;;;;;;;;;;;;;;;;137567;1274;22277;-79
2023/11/25 14:10:31;;;;;;;;;;;;;;;;;;137567;1274;22340;-82
2023/11/25 14:13:33;;;;;;;;;;;;;;;;;;137547;1274;22297;-83
2023/11/25 14:16:36;;;;;;;;;;;;;;;;;;137487;1274;22490;-85
2023/11/25 14:19:40;;;;;;;;;;;;;;;;;;137566;1274;22358;-84
2023/11/25 14:22:44;;;;;;;;;;;;;;;;;;137586;1274;22380;-80
2023/11/25 14:25:46;;;;;;;;;;;;;;;;;;137744;1274;22434;-81
2023/11/25 14:28:48;;;;;;;;;;;;;;;;;;137658;1274;22186;-81
2023/11/25 14:31:51;;;;;;;;;;;;;;;;;;137627;1274;22191;-81
2023/11/25 14:34:53;;;;;;;;;;;;;;;;;;137559;1274;22621;-81
2023/11/25 14:37:59;;;;;;;;;;;;;;;;;;137576;1273;22306;-81
2023/11/25 14:41:02;;;;;;;;;;;;;;;;;;137618;1274;22277;-80
2023/11/25 14:44:04;;;;;;;;;;;;;;;;;;137574;1274;22447;-81
2023/11/25 14:47:08;;;;;;;;;;;;;;;;;;137620;1274;22323;-81
2023/11/25 14:50:11;;;;;;;;;;;;;;;;;;137558;1274;22334;-81
2023/11/25 14:53:16;;;;;;;;;;;;;;;;;;137559;1274;22335;-81
2023/11/25 14:56:19;;;;;;;;;;;;;;;;;;137592;1274;22343;-80
2023/11/25 14:59:21;;;;;;;;;;;;;;;;;;137565;1274;22201;-83
2023/11/25 15:02:24;;;;;;;;;;;;;;;;;;137553;1274;22295;-81
2023/11/25 15:05:26;;;;;;;;;;;;;;;;;;137547;1274;22172;-80
2023/11/25 15:08:29;;;;;;;;;;;;;;;;;;137561;1274;22255;-80
2023/11/25 15:11:31;;;;;;;;;;;;;;;;;;137449;1274;22293;-80
2023/11/25 15:14:34;;;;;;;;;;;;;;;;;;137573;1274;22363;-80
2023/11/25 15:17:36;;;;;;;;;;;;;;;;;;137592;1270;22272;-81
2023/11/25 15:20:40;;;;;;;;;;;;;;;;;;137562;1262;22225;-80
2023/11/25 15:23:44;;;;;;;;;;;;;;;;;;137518;1274;22462;-80
2023/11/25 15:26:46;;;;;;;;;;;;;;;;;;137507;1275;22268;-80
2023/11/25 15:29:49;;;;;;;;;;;;;;;;;;137475;1275;22294;-80
2023/11/25 15:32:51;;;;;;;;;;;;;;;;;;137482;1275;22285;-80
2023/11/25 15:35:54;;;;;;;;;;;;;;;;;;137477;1275;22172;-80
2023/11/25 15:38:56;;;;;;;;;;;;;;;;;;137492;1275;22280;-81
2023/11/25 15:41:59;;;;;;;;;;;;;;;;;;137472;1275;22348;-80
2023/11/25 15:45:02;;;;;;;;;;;;;;;;;;137488;1275;22259;-80
2023/11/25 15:48:04;;;;;;;;;;;;;;;;;;137452;1275;22724;-80
2023/11/25 15:51:07;;;;;;;;;;;;;;;;;;137503;1275;22323;-80
2023/11/25 15:54:10;;;;;;;;;;;;;;;;;;137436;1275;22372;-80
2023/11/25 15:57:12;;;;;;;;;;;;;;;;;;137482;1264;22332;-80
2023/11/25 16:00:15;;;;;;;;;;;;;;;;;;137461;1275;22328;-80
2023/11/25 16:03:17;;;;;;;;;;;;;;;;;;137454;1275;22199;-80
2023/11/25 16:06:20;;;;;;;;;;;;;;;;;;137467;1275;22637;-80
2023/11/25 16:09:22;;;;;;;;;;;;;;;;;;137445;1275;22198;-80
2023/11/25 16:12:25;;;;;;;;;;;;;;;;;;137441;1275;22299;-80
2023/11/25 16:15:28;;;;;;;;;;;;;;;;;;137451;1275;22286;-80
2023/11/25 16:18:32;;;;;;;;;;;;;;;;;;137468;1275;22276;-81
2023/11/25 16:21:36;;;;;;;;;;;;;;;;;;137440;1275;22258;-80
2023/11/25 16:24:39;;;;;;;;;;;;;;;;;;137431;1275;22901;-80
2023/11/25 16:27:41;;;;;;;;;;;;;;;;;;137464;1275;22301;-80
2023/11/25 16:30:44;;;;;;;;;;;;;;;;;;137435;1259;22554;-80
2023/11/25 16:33:47;;;;;;;;;;;;;;;;;;137415;1275;22223;-80
2023/11/25 16:36:50;;;;;;;;;;;;;;;;;;137432;1275;22200;-80
2023/11/25 16:39:57;;;;;;;;;;;;;;;;;;137448;1275;22207;-80
2023/11/25 16:43:01;;;;;;;;;;;;;;;;;;137444;1275;22313;-79
2023/11/25 16:46:04;;;;;;;;;;;;;;;;;;137460;1275;22282;-80
2023/11/25 16:49:06;;;;;;;;;;;;;;;;;;137416;1275;22723;-80
2023/11/25 16:52:09;;;;;;;;;;;;;;;;;;137500;1275;22291;-79
2023/11/25 16:55:11;;;;;;;;;;;;;;;;;;137480;1274;22376;-79
2023/11/25 16:58:14;;;;;;;;;;;;;;;;;;137529;1275;22275;-80
2023/11/25 17:01:17;;;;;;;;;;;;;;;;;;137530;1275;22297;-79
2023/11/25 17:04:19;;;;;;;;;;;;;;;;;;137448;1275;22269;-79
2023/11/25 17:07:22;;;;;;;;;;;;;;;;;;137493;1274;22273;-79
2023/11/25 17:10:25;;;;;;;;;;;;;;;;;;137455;1275;22330;-80
2023/11/25 17:13:27;;;;;;;;;;;;;;;;;;137422;1274;22295;-79
2023/11/25 17:16:30;;;;;;;;;;;;;;;;;;137463;1275;23095;-79
2023/11/25 17:19:32;;;;;;;;;;;;;;;;;;137424;1275;22190;-80
2023/11/25 17:22:35;;;;;;;;;;;;;;;;;;137472;1275;22281;-80
2023/11/25 17:25:37;;;;;;;;;;;;;;;;;;137507;1271;22486;-80
2023/11/25 17:28:41;;;;;;;;;;;;;;;;;;137520;1274;22381;-80
2023/11/25 17:31:44;;;;;;;;;;;;;;;;;;137506;1274;22286;-80
2023/11/25 17:34:47;;;;;;;;;;;;;;;;;;137528;1274;22702;-81
2023/11/25 17:37:49;;;;;;;;;;;;;;;;;;137520;1274;22308;-82
2023/11/25 17:40:52;;;;;;;;;;;;;;;;;;137536;1274;22809;-83
2023/11/25 17:43:57;;;;;;;;;;;;;;;;;;137545;1274;22276;-82
2023/11/25 17:47:02;;;;;;;;;;;;;;;;;;137528;1272;22339;-82
2023/11/25 17:50:05;;;;;;;;;;;;;;;;;;137571;1274;22376;-82
2023/11/25 17:53:09;;;;;;;;;;;;;;;;;;137565;1274;22354;-77
2023/11/25 17:56:11;;;;;;;;;;;;;;;;;;137567;1274;22405;-82
2023/11/25 17:59:14;;;;;;;;;;;;;;;;;;137589;1274;22763;-82
2023/11/25 18:02:16;;;;;;;;;;;;;;;;;;137563;1274;22259;-82
2023/11/25 18:05:19;;;;;;;;;;;;;;;;;;137582;1274;22701;-82
2023/11/25 18:08:22;;;;;;;;;;;;;;;;;;137616;1274;22373;-82
2023/11/25 18:11:25;;;;;;;;;;;;;;;;;;137595;1274;22513;-82
2023/11/25 18:14:28;;;;;;;;;;;;;;;;;;137569;1274;22267;-82
2023/11/25 18:17:31;;;;;;;;;;;;;;;;;;137570;1274;22816;-82
2023/11/25 18:20:34;;;;;;;;;;;;;;;;;;137593;1274;22389;-81
2023/11/25 18:23:36;;;;;;;;;;;;;;;;;;137560;1274;22404;-81
2023/11/25 18:26:39;;;;;;;;;;;;;;;;;;137561;1274;22761;-81
2023/11/25 18:29:42;;;;;;;;;;;;;;;;;;137606;1274;22867;-82
2023/11/25 18:32:44;;;;;;;;;;;;;;;;;;137636;1272;22255;-82
2023/11/25 18:35:46;;;;;;;;;;;;;;;;;;137601;1274;22289;-82
2023/11/25 18:38:49;;;;;;;;;;;;;;;;;;137591;1274;22265;-81
2023/11/25 18:41:51;;;;;;;;;;;;;;;;;;137574;1274;22692;-82
2023/11/25 18:44:54;;;;;;;;;;;;;;;;;;137608;1274;22323;-81
2023/11/25 18:47:56;;;;;;;;;;;;;;;;;;137560;1274;22287;-81
2023/11/25 18:50:59;;;;;;;;;;;;;;;;;;137564;1274;22296;-81
2023/11/25 18:54:01;;;;;;;;;;;;;;;;;;137552;1274;22399;-82
2023/11/25 18:57:06;;;;;;;;;;;;;;;;;;137510;1274;22313;-82
2023/11/25 19:00:09;;;;;;;;;;;;;;;;;;137626;1274;22359;-82
2023/11/25 19:03:13;;;;;;;;;;;;;;;;;;137610;1274;22240;-81
2023/11/25 19:06:15;;;;;;;;;;;;;;;;;;137590;1273;22522;-81
2023/11/25 19:09:18;;;;;;;;;;;;;;;;;;137499;1274;22319;-82
2023/11/25 19:12:20;;;;;;;;;;;;;;;;;;137617;1274;22671;-82
2023/11/25 19:15:23;;;;;;;;;;;;;;;;;;137588;1274;22250;-81
2023/11/25 19:18:25;;;;;;;;;;;;;;;;;;137709;1274;22223;-83
2023/11/25 19:21:28;;;;;;;;;;;;;;;;;;137749;1274;22276;-84
2023/11/25 19:25:55;;;;;;;;;;;;;;;;;;133213;1309;544023;-82
2023/11/25 19:28:58;;;;;;;;;;;;;;;;;;136062;1285;23041;-82
2023/11/25 19:32:00;;;;;;;;;;;;;;;;;;136418;1285;24183;-84
2023/11/25 19:35:03;;;;;;;;;;;;;;;;;;136144;1285;22516;-81
2023/11/25 19:38:07;;;;;;;;;;;;;;;;;;135586;1282;419145;-82
2023/11/25 19:41:09;;;;;;;;;;;;;;;;;;136169;1282;25320;-84
2023/11/25 19:44:11;;;;;;;;;;;;;;;;;;136499;1282;22643;-84
2023/11/25 19:47:14;;;;;;;;;;;;;;;;;;136121;1282;22517;-83
2023/11/25 19:50:17;;;;;;;;;;;;;;;;;;136121;1282;22573;-83
2023/11/25 19:53:19;;;;;;;;;;;;;;;;;;136673;1282;22559;-84
2023/11/25 19:56:22;;;;;;;;;;;;;;;;;;136416;1279;22644;-84
2023/11/25 19:59:24;;;;;;;;;;;;;;;;;;136441;1279;22512;-85
2023/11/25 20:02:27;;;;;;;;;;;;;;;;;;136827;1279;25418;-85
2023/11/25 20:05:29;;;;;;;;;;;;;;;;;;136572;1279;22517;-85
2023/11/25 20:08:32;;;;;;;;;;;;;;;;;;136483;1279;22497;-83
2023/11/25 20:11:34;;;;;;;;;;;;;;;;;;136564;1279;22520;-85
2023/11/25 20:14:40;;;;;;;;;;;;;;;;;;136753;1279;22490;-86
2023/11/25 20:17:43;;;;;;;;;;;;;;;;;;137195;1271;22517;-86
2023/11/25 20:20:45;;;;;;;;;;;;;;;;;;137265;1271;22510;-85
2023/11/25 20:23:48;;;;;;;;;;;;;;;;;;137733;1271;22483;-86
2023/11/25 20:26:50;;;;;;;;;;;;;;;;;;137727;1252;22547;-85
2023/11/25 20:29:53;;;;;;;;;;;;;;;;;;137841;1271;23063;-84